Time;durP1;ratioP1;P1;durP2;ratioP2;P2;SDS_P1;SDS_P2;PMS_P1;PMS_P2;Temp;Humidity;BMP_temperature;BMP_pressure;BME280_temperature;BME280_humidity;BME280_pressure;Samples;Min_cycle;Max_cycle;Signal;HPM_P1;HPM_P2
2023/12/16 00:00:01;;;;;;;6.70;3.30;;;23.90;54.50;;;;;;222270;1263;23313;-50
2023/12/16 00:05:36;;;;;;;4.30;3.80;;;23.90;54.60;;;;;;222435;1263;22696;-46
2023/12/16 00:10:43;;;;;;;4.80;3.50;;;23.80;54.40;;;;;;222614;1255;24192;-48
2023/12/16 00:15:48;;;;;;;4.70;3.40;;;23.70;54.50;;;;;;222445;1264;22521;-49
2023/12/16 00:20:53;;;;;;;3.80;3.20;;;23.70;54.60;;;;;;222322;1263;23139;-51
2023/12/16 00:25:57;;;;;;;4.90;3.90;;;23.70;54.50;;;;;;222391;1269;24340;-50
2023/12/16 00:31:03;;;;;;;4.40;3.40;;;23.60;54.60;;;;;;222638;1263;22772;-48
2023/12/16 00:36:08;;;;;;;3.90;3.10;;;23.60;54.50;;;;;;222739;1250;26654;-47
2023/12/16 00:41:13;;;;;;;6.10;3.10;;;23.50;54.40;;;;;;222486;1263;22755;-49
2023/12/16 00:46:17;;;;;;;3.30;2.90;;;23.40;55.00;;;;;;222215;1263;22738;-51
2023/12/16 00:51:21;;;;;;;4.00;3.20;;;23.40;54.80;;;;;;222441;1267;23068;-47
2023/12/16 00:56:26;;;;;;;4.70;3.30;;;23.60;54.70;;;;;;222693;1263;25873;-57
2023/12/16 01:01:30;;;;;;;3.00;2.80;;;23.80;54.60;;;;;;223010;1266;23882;-58
2023/12/16 01:06:35;;;;;;;5.60;2.90;;;23.90;53.80;;;;;;222163;1254;22530;-59
2023/12/16 01:11:40;;;;;;;4.10;3.40;;;24.10;53.50;;;;;;222640;1266;24212;-59
2023/12/16 01:16:45;;;;;;;3.80;3.00;;;24.20;53.30;;;;;;223046;1260;22627;-58
2023/12/16 01:21:50;;;;;;;4.50;3.10;;;24.20;53.40;;;;;;222421;1257;22550;-59
2023/12/16 01:26:54;;;;;;;3.40;3.10;;;24.20;53.20;;;;;;222591;1264;22578;-58
2023/12/16 01:31:59;;;;;;;3.60;3.10;;;24.10;53.30;;;;;;222537;1264;22540;-58
2023/12/16 01:37:04;;;;;;;3.60;2.90;;;24.00;53.40;;;;;;222721;1260;25157;-58
2023/12/16 01:42:08;;;;;;;4.00;3.30;;;23.90;53.60;;;;;;222387;1263;24231;-57
2023/12/16 01:47:12;;;;;;;3.70;3.40;;;23.80;53.70;;;;;;222614;1261;22511;-58
2023/12/16 01:52:18;;;;;;;3.30;3.00;;;23.70;53.70;;;;;;222580;1260;22529;-59
2023/12/16 01:57:23;;;;;;;4.30;3.00;;;23.70;53.90;;;;;;222775;1263;22756;-58
2023/12/16 02:02:28;;;;;;;7.10;3.30;;;23.60;53.30;;;;;;222750;1266;24224;-59
2023/12/16 02:07:32;;;;;;;4.10;2.40;;;23.50;54.50;;;;;;222609;1261;24418;-59
2023/12/16 02:12:37;;;;;;;2.70;2.50;;;23.50;54.00;;;;;;222305;1260;23035;-58
2023/12/16 02:17:41;;;;;;;3.30;2.90;;;23.40;53.90;;;;;;222501;1260;22917;-57
2023/12/16 02:22:47;;;;;;;3.70;2.80;;;23.60;54.00;;;;;;222218;1260;23718;-58
2023/12/16 02:27:51;;;;;;;3.50;2.70;;;23.80;53.50;;;;;;221974;1268;22528;-59
2023/12/16 02:32:57;;;;;;;4.70;2.40;;;23.90;53.40;;;;;;222121;1264;22510;-60
2023/12/16 02:38:01;;;;;;;2.60;2.30;;;24.10;52.90;;;;;;222267;1257;25269;-56
2023/12/16 02:43:06;;;;;;;2.50;2.20;;;24.20;52.70;;;;;;221990;1264;24212;-58
2023/12/16 02:48:12;;;;;;;2.60;2.30;;;24.10;52.60;;;;;;222240;1260;24212;-59
2023/12/16 02:53:17;;;;;;;2.50;2.30;;;24.20;52.50;;;;;;222145;1264;22524;-61
2023/12/16 02:58:21;;;;;;;3.60;2.30;;;24.10;52.60;;;;;;222544;1260;22520;-60
2023/12/16 03:03:26;;;;;;;4.60;2.50;;;24.00;53.20;;;;;;222449;1262;25343;-59
2023/12/16 03:08:31;;;;;;;2.70;2.40;;;23.90;53.10;;;;;;222511;1260;24196;-60
2023/12/16 03:13:35;;;;;;;3.20;2.40;;;23.90;53.10;;;;;;222888;1257;24213;-59
2023/12/16 03:18:40;;;;;;;2.10;2.00;;;23.90;53.10;;;;;;222790;1260;24222;-59
2023/12/16 03:23:45;;;;;;;3.70;2.60;;;23.90;52.90;;;;;;222632;1260;22633;-59
2023/12/16 03:28:49;;;;;;;2.70;2.30;;;23.70;53.20;;;;;;222834;1260;22556;-59
2023/12/16 03:33:54;;;;;;;3.70;2.50;;;23.60;53.40;;;;;;222512;1260;22541;-59
2023/12/16 03:38:59;;;;;;;4.30;2.20;;;23.60;53.80;;;;;;222449;1253;23499;-60
2023/12/16 03:44:04;;;;;;;2.40;2.20;;;23.50;53.90;;;;;;222607;1268;24225;-59
2023/12/16 03:49:08;;;;;;;2.20;2.00;;;23.40;53.60;;;;;;222532;1260;22507;-59
2023/12/16 03:54:13;;;;;;;2.60;2.40;;;23.40;53.90;;;;;;222494;1260;26630;-60
2023/12/16 03:59:19;;;;;;;2.80;2.60;;;23.80;53.40;;;;;;222105;1268;23076;-58
2023/12/16 04:04:23;;;;;;;2.20;1.90;;;24.10;52.40;;;;;;221926;1260;26700;-58
2023/12/16 04:09:28;;;;;;;2.40;2.20;;;24.30;52.00;;;;;;222662;1268;22504;-59
2023/12/16 04:14:37;;;;;;;2.60;2.20;;;24.40;51.90;;;;;;222202;1253;24311;-59
2023/12/16 04:19:52;;;;;;;2.20;1.90;;;24.40;51.80;;;;;;222494;1264;26518;-59
2023/12/16 04:24:57;;;;;;;2.30;2.00;;;24.40;51.90;;;;;;222340;1267;22529;-58
2023/12/16 04:30:05;;;;;;;2.20;2.10;;;24.30;52.50;;;;;;222485;1260;25258;-59
2023/12/16 04:35:10;;;;;;;2.70;2.40;;;24.20;52.50;;;;;;222543;1253;23880;-59
2023/12/16 04:40:14;;;;;;;2.40;2.10;;;24.10;52.60;;;;;;222465;1260;24202;-59
2023/12/16 04:45:19;;;;;;;2.00;1.90;;;23.90;52.80;;;;;;222349;1268;22510;-59
2023/12/16 04:50:23;;;;;;;3.30;2.20;;;23.90;53.00;;;;;;222388;1254;24340;-59
2023/12/16 04:55:28;;;;;;;2.10;1.90;;;23.80;53.10;;;;;;222510;1263;24213;-59
2023/12/16 05:00:33;;;;;;;2.10;2.00;;;23.70;53.10;;;;;;222408;1260;24369;-59
2023/12/16 05:05:37;;;;;;;2.10;2.00;;;23.60;53.30;;;;;;222637;1264;22535;-59
2023/12/16 05:10:45;;;;;;;2.40;1.70;;;23.60;53.40;;;;;;222673;1260;22792;-59
2023/12/16 05:15:53;;;;;;;2.30;2.10;;;23.50;53.50;;;;;;222668;1260;22599;-58
2023/12/16 05:20:57;;;;;;;2.10;1.90;;;23.40;53.60;;;;;;222708;1260;24215;-58
2023/12/16 05:26:02;;;;;;;2.60;2.20;;;23.40;53.70;;;;;;223090;1266;22654;-59
2023/12/16 05:31:07;;;;;;;1.70;1.60;;;23.30;53.70;;;;;;223008;1264;24263;-58
2023/12/16 05:36:12;;;;;;;2.00;1.80;;;23.30;53.70;;;;;;222961;1264;24196;-59
2023/12/16 05:41:17;;;;;;;2.30;2.10;;;23.20;53.90;;;;;;222904;1257;26153;-59
2023/12/16 05:46:21;;;;;;;2.00;1.80;;;23.10;54.00;;;;;;222528;1260;25284;-58
2023/12/16 05:51:26;;;;;;;2.20;1.60;;;23.10;54.10;;;;;;222057;1263;24186;-60
2023/12/16 05:56:32;;;;;;;2.00;1.80;;;23.00;54.10;;;;;;221884;1263;22567;-59
2023/12/16 06:01:37;;;;;;;1.80;1.70;;;23.00;54.60;;;;;;221952;1264;22521;-59
2023/12/16 06:06:42;;;;;;;1.80;1.60;;;22.90;54.30;;;;;;221978;1263;22816;-59
2023/12/16 06:11:46;;;;;;;2.30;2.10;;;22.90;54.40;;;;;;220890;1273;22709;-59
2023/12/16 06:16:51;;;;;;;1.80;1.70;;;22.80;54.70;;;;;;220777;1269;25273;-58
2023/12/16 06:21:56;;;;;;;1.70;1.60;;;22.80;54.60;;;;;;221165;1272;235141;-58
2023/12/16 06:27:00;;;;;;;1.90;1.70;;;23.00;54.30;;;;;;221753;1260;22538;-59
2023/12/16 06:32:05;;;;;;;1.90;1.80;;;23.40;54.00;;;;;;222517;1256;22526;-58
2023/12/16 06:37:09;;;;;;;1.80;1.50;;;23.70;53.10;;;;;;222460;1268;25479;-59
2023/12/16 06:42:13;;;;;;;1.90;1.80;;;23.90;52.30;;;;;;222615;1266;25223;-57
2023/12/16 06:47:18;;;;;;;1.60;1.50;;;24.00;52.20;;;;;;222558;1263;23288;-59
2023/12/16 06:52:23;;;;;;;2.10;1.40;;;24.10;52.00;;;;;;222995;1260;24229;-59
2023/12/16 06:57:27;;;;;;;1.60;1.50;;;24.00;52.10;;;;;;222565;1264;25338;-59
2023/12/16 07:02:32;;;;;;;2.00;1.80;;;23.90;52.20;;;;;;222620;1253;25471;-58
2023/12/16 07:07:36;;;;;;;1.70;1.60;;;23.80;52.70;;;;;;222995;1263;24189;-59
2023/12/16 07:12:42;;;;;;;1.80;1.60;;;23.80;52.80;;;;;;222518;1267;23884;-58
2023/12/16 07:17:46;;;;;;;1.50;1.40;;;23.70;52.90;;;;;;222472;1260;24369;-59
2023/12/16 07:22:51;;;;;;;1.40;1.30;;;23.60;53.00;;;;;;222656;1260;25261;-59
2023/12/16 07:27:56;;;;;;;1.60;1.50;;;23.60;53.00;;;;;;222723;1267;22688;-56
2023/12/16 07:33:00;;;;;;;1.50;1.40;;;23.40;53.50;;;;;;222422;1260;24212;-60
2023/12/16 07:38:05;;;;;;;1.60;1.40;;;23.40;53.20;;;;;;222767;1266;24212;-59
2023/12/16 07:43:10;;;;;;;1.40;1.30;;;23.40;53.50;;;;;;222942;1250;24396;-59
2023/12/16 07:48:14;;;;;;;1.50;1.40;;;23.20;53.50;;;;;;222868;1264;25106;-54
2023/12/16 07:53:22;;;;;;;1.40;1.30;;;23.20;53.70;;;;;;222572;1265;23241;-52
2023/12/16 07:58:27;;;;;;;2.80;1.50;;;23.10;54.00;;;;;;222670;1264;23800;-61
2023/12/16 08:03:31;;;;;;;1.30;1.30;;;23.10;54.40;;;;;;222743;1263;25431;-62
2023/12/16 08:08:40;;;;;;;4.00;1.80;;;23.00;54.20;;;;;;222676;1265;25561;-61
2023/12/16 08:13:44;;;;;;;1.40;1.30;;;22.90;54.40;;;;;;222670;1264;22729;-53
2023/12/16 08:18:48;;;;;;;3.00;1.60;;;22.80;54.50;;;;;;222552;1245;22521;-47
2023/12/16 08:23:53;;;;;;;3.10;1.60;;;22.90;55.40;;;;;;222815;1268;24042;-50
2023/12/16 08:28:57;;;;;;;5.30;1.70;;;23.30;53.80;;;;;;222859;1264;25462;-46
2023/12/16 08:34:02;;;;;;;1.60;1.50;;;23.70;53.40;;;;;;222700;1266;22530;-51
2023/12/16 08:39:07;;;;;;;6.60;1.90;;;23.60;53.20;;;;;;222480;1268;26631;-48
2023/12/16 08:44:11;;;;;;;6.00;1.70;;;23.60;53.10;;;;;;222655;1245;24076;-49
2023/12/16 08:49:17;;;;;;;4.70;1.90;;;23.60;53.10;;;;;;223342;1257;22514;-47
2023/12/16 08:54:22;;;;;;;7.40;1.90;;;23.70;53.90;;;;;;221251;1269;24233;-51
2023/12/16 08:59:26;;;;;;;2.00;1.70;;;23.60;54.30;;;;;;221105;1267;22537;-50
2023/12/16 09:04:32;;;;;;;3.30;1.60;;;23.50;54.90;;;;;;221199;1252;24206;-50
2023/12/16 09:09:38;;;;;;;2.40;1.80;;;23.50;54.60;;;;;;221356;1260;24243;-47
2023/12/16 09:14:42;;;;;;;2.70;1.80;;;23.40;54.60;;;;;;222488;1260;24267;-51
2023/12/16 09:19:46;;;;;;;5.50;2.20;;;23.40;54.60;;;;;;222626;1266;22627;-52
2023/12/16 09:24:51;;;;;;;5.00;1.80;;;23.30;54.80;;;;;;222711;1263;22586;-47
2023/12/16 09:29:56;;;;;;;2.80;1.80;;;23.40;54.30;;;;;;222890;1254;25285;-49
2023/12/16 09:35:02;;;;;;;3.60;1.90;;;23.20;54.50;;;;;;222930;1266;23315;-49
2023/12/16 09:40:09;;;;;;;10.20;2.30;;;23.40;54.40;;;;;;223036;1260;24170;-50
2023/12/16 09:45:16;;;;;;;5.30;2.20;;;23.40;54.60;;;;;;222685;1261;22517;-49
2023/12/16 09:50:22;;;;;;;3.30;2.10;;;23.40;54.80;;;;;;222814;1266;24319;-51
2023/12/16 09:55:27;;;;;;;3.40;2.10;;;23.20;54.80;;;;;;222747;1266;22566;-53
2023/12/16 10:00:31;;;;;;;4.70;1.90;;;23.10;55.40;;;;;;222887;1268;25340;-51
2023/12/16 10:05:36;;;;;;;3.20;2.00;;;23.00;55.40;;;;;;222281;1268;22518;-48
2023/12/16 10:10:42;;;;;;;2.60;2.00;;;23.00;55.50;;;;;;222412;1261;22511;-51
2023/12/16 10:16:00;;;;;;;6.20;2.30;;;23.20;55.10;;;;;;222764;1266;23660;-50
2023/12/16 10:21:05;;;;;;;2.50;2.00;;;23.40;54.40;;;;;;222630;1266;26155;-49
2023/12/16 10:26:18;;;;;;;7.20;1.90;;;23.60;54.10;;;;;;222603;1259;22524;-57
2023/12/16 10:31:24;;;;;;;3.90;1.90;;;23.80;53.60;;;;;;222761;1267;24189;-61
2023/12/16 10:36:30;;;;;;;3.90;2.00;;;23.90;53.40;;;;;;222932;1260;25214;-65
2023/12/16 10:41:34;;;;;;;3.10;2.50;;;23.90;53.30;;;;;;222907;1266;24233;-64
2023/12/16 10:46:41;;;;;;;3.00;1.90;;;23.90;53.30;;;;;;222587;1266;23913;-61
2023/12/16 10:51:49;;;;;;;3.50;2.10;;;23.80;53.30;;;;;;222794;1267;22529;-58
2023/12/16 10:57:05;;;;;;;3.40;2.20;;;23.60;53.30;;;;;;222898;1260;24273;-56
2023/12/16 11:02:22;;;;;;;5.00;2.20;;;23.70;53.30;;;;;;222568;1260;24191;-53
2023/12/16 11:07:33;;;;;;;;;;;23.70;53.30;;;;;;222646;1261;22568;-56
2023/12/16 11:12:39;;;;;;;5.50;2.10;;;23.70;53.20;;;;;;222707;1254;24212;-62
2023/12/16 11:18:31;;;;;;;6.60;2.20;;;23.60;53.10;;;;;;222413;1268;22650;-54
2023/12/16 11:23:44;;;;;;;17.80;2.30;;;23.50;53.50;;;;;;221115;1272;24205;-56
2023/12/16 11:28:57;;;;;;;3.70;2.00;;;23.20;53.90;;;;;;221309;1269;23909;-56
2023/12/16 11:34:03;;;;;;;3.20;2.10;;;23.30;53.60;;;;;;220848;1269;24469;-51
2023/12/16 11:39:42;;;;;;;2.70;1.70;;;23.30;53.70;;;;;;221148;1273;24742;-50
2023/12/16 11:44:48;;;;;;;5.00;2.20;;;23.30;53.30;;;;;;221153;1270;23830;-48
2023/12/16 11:49:56;;;;;;;2.80;2.10;;;23.30;53.40;;;;;;221056;1272;22614;-49
2023/12/16 11:55:01;;;;;;;7.80;2.30;;;23.30;53.30;;;;;;221280;1268;22630;-48
2023/12/16 12:00:07;;;;;;;2.60;1.80;;;23.30;53.20;;;;;;222735;1266;24330;-51
2023/12/16 12:05:15;;;;;;;4.20;2.60;;;23.30;53.50;;;;;;223256;1250;27636;-50
2023/12/16 12:10:20;;;;;;;8.40;2.50;;;23.40;53.10;;;;;;222890;1260;22539;-47
2023/12/16 12:15:25;;;;;;;9.40;3.20;;;23.30;53.70;;;;;;222298;1264;25632;-48
2023/12/16 12:20:29;;;;;;;4.80;2.00;;;23.30;53.30;;;;;;223032;1268;25319;-49
2023/12/16 12:25:34;;;;;;;4.10;2.10;;;23.30;53.20;;;;;;222684;1267;24312;-48
2023/12/16 12:30:39;;;;;;;6.10;1.90;;;23.30;53.00;;;;;;222621;1261;25358;-45
2023/12/16 12:35:43;;;;;;;2.00;1.90;;;23.20;54.10;;;;;;222271;1268;22623;-48
2023/12/16 12:41:06;;;;;;;3.80;2.60;;;23.20;53.30;;;;;;222879;1266;22531;-48
2023/12/16 12:46:13;;;;;;;4.10;2.20;;;23.10;53.70;;;;;;222767;1266;22509;-48
2023/12/16 12:51:20;;;;;;;3.80;2.10;;;23.10;53.90;;;;;;222801;1266;25173;-47
2023/12/16 12:56:25;;;;;;;5.40;2.20;;;23.00;54.00;;;;;;223099;1268;24196;-48
2023/12/16 13:01:29;;;;;;;2.60;2.40;;;22.90;53.40;;;;;;222911;1261;23888;-50
2023/12/16 13:06:34;;;;;;;3.20;2.90;;;22.90;53.60;;;;;;222675;1269;22560;-51
2023/12/16 13:11:38;;;;;;;4.70;2.50;;;22.80;53.40;;;;;;223012;1268;22658;-48
2023/12/16 13:16:43;;;;;;;2.80;2.30;;;22.90;53.30;;;;;;222942;1265;24227;-49
2023/12/16 13:21:48;;;;;;;4.30;2.50;;;22.80;53.10;;;;;;222479;1264;24224;-50
2023/12/16 13:26:53;;;;;;;3.70;2.70;;;22.80;53.70;;;;;;222716;1260;22517;-51
2023/12/16 13:31:57;;;;;;;3.00;2.00;;;22.80;53.80;;;;;;222516;1261;23035;-47
2023/12/16 13:37:02;;;;;;;4.00;2.30;;;23.10;53.00;;;;;;222662;1264;25402;-49
2023/12/16 13:42:07;;;;;;;2.70;2.20;;;23.40;52.10;;;;;;222489;1266;24377;-48
2023/12/16 13:47:12;;;;;;;2.30;1.80;;;23.50;51.60;;;;;;222386;1266;26233;-50
2023/12/16 13:52:19;;;;;;;4.00;2.20;;;23.50;51.70;;;;;;221847;1257;24652;-50
2023/12/16 13:57:24;;;;;;;3.10;2.40;;;23.40;51.70;;;;;;221881;1260;22534;-50
2023/12/16 14:02:28;;;;;;;2.60;2.10;;;23.40;52.20;;;;;;221912;1271;24200;-49
2023/12/16 14:07:33;;;;;;;2.70;2.10;;;23.30;51.60;;;;;;221908;1267;25488;-47
2023/12/16 14:12:39;;;;;;;3.40;2.90;;;23.30;51.30;;;;;;221823;1272;22553;-46
2023/12/16 14:17:46;;;;;;;8.50;2.70;;;23.20;51.30;;;;;;221840;1269;25338;-49
2023/12/16 14:22:50;;;;;;;3.80;2.70;;;23.10;51.30;;;;;;221890;1271;27067;-46
2023/12/16 14:27:55;;;;;;;4.40;3.10;;;23.10;52.40;;;;;;222223;1267;22761;-49
2023/12/16 14:32:59;;;;;;;3.50;2.50;;;22.90;54.40;;;;;;221992;1271;24091;-49
2023/12/16 14:38:04;;;;;;;3.40;2.30;;;22.80;57.20;;;;;;222956;1267;25329;-48
2023/12/16 14:43:09;;;;;;;3.70;2.40;;;22.70;58.20;;;;;;222625;1267;22642;-49
2023/12/16 14:48:14;;;;;;;3.30;2.70;;;22.70;58.60;;;;;;223006;1267;24244;-48
2023/12/16 14:53:19;;;;;;;11.10;2.80;;;22.70;58.50;;;;;;222936;1266;22655;-50
2023/12/16 14:58:24;;;;;;;7.80;3.00;;;22.70;58.40;;;;;;222889;1268;22626;-51
2023/12/16 15:03:28;;;;;;;5.80;2.70;;;22.90;58.70;;;;;;222999;1254;24189;-49
2023/12/16 15:08:33;;;;;;;7.20;2.30;;;23.00;59.10;;;;;;222869;1268;22550;-50
2023/12/16 15:13:39;;;;;;;4.80;2.40;;;23.10;58.80;;;;;;222524;1268;22529;-49
2023/12/16 15:18:44;;;;;;;3.90;2.70;;;23.30;58.40;;;;;;222796;1254;23927;-50
2023/12/16 15:23:49;;;;;;;5.50;2.60;;;23.40;58.20;;;;;;222721;1255;22639;-49
2023/12/16 15:28:54;;;;;;;8.10;2.70;;;23.40;57.80;;;;;;222880;1264;22766;-49
2023/12/16 15:33:59;;;;;;;6.10;2.60;;;23.40;58.70;;;;;;222369;1268;24199;-50
2023/12/16 15:39:04;;;;;;;4.00;2.30;;;23.30;58.20;;;;;;222872;1264;22517;-49
2023/12/16 15:44:09;;;;;;;13.70;2.90;;;23.30;58.20;;;;;;222897;1257;22568;-53
2023/12/16 15:49:17;;;;;;;4.50;2.70;;;23.40;58.40;;;;;;222501;1268;22481;-53
2023/12/16 15:54:23;;;;;;;2.50;2.30;;;23.30;58.30;;;;;;222799;1268;25364;-53
2023/12/16 15:59:28;;;;;;;7.90;2.70;;;23.30;57.90;;;;;;222747;1268;24199;-47
2023/12/16 16:04:32;;;;;;;14.30;2.90;;;23.20;57.80;;;;;;222938;1264;22501;-53
2023/12/16 16:09:37;;;;;;;8.40;2.70;;;23.20;57.40;;;;;;223186;1260;25322;-51
2023/12/16 16:14:42;;;;;;;7.20;3.00;;;23.10;57.60;;;;;;224576;1268;22553;-53
2023/12/16 16:19:47;;;;;;;5.00;2.60;;;23.20;57.40;;;;;;222455;1268;22537;-51
2023/12/16 16:24:52;;;;;;;5.90;2.70;;;23.10;57.50;;;;;;222114;1268;24219;-51
2023/12/16 16:29:57;;;;;;;5.40;2.70;;;23.10;57.00;;;;;;222694;1260;22566;-52
2023/12/16 16:35:07;;;;;;;7.90;2.90;;;23.10;57.80;;;;;;222895;1258;25444;-52
2023/12/16 16:40:12;;;;;;;6.50;2.80;;;23.10;57.60;;;;;;222822;1261;25265;-52
2023/12/16 16:45:17;;;;;;;7.50;2.60;;;23.30;56.90;;;;;;221981;1257;23884;-54
2023/12/16 16:50:21;;;;;;;7.10;2.60;;;23.40;57.60;;;;;;221920;1264;25561;-48
2023/12/16 16:55:26;;;;;;;8.30;2.70;;;23.50;57.10;;;;;;221782;1270;22593;-49
2023/12/16 17:00:33;;;;;;;8.40;2.40;;;23.70;57.30;;;;;;221966;1266;24397;-49
2023/12/16 17:05:38;;;;;;;7.80;2.90;;;23.70;57.00;;;;;;221857;1269;26502;-51
2023/12/16 17:10:44;;;;;;;6.90;3.10;;;23.60;57.00;;;;;;221820;1267;22602;-49
2023/12/16 17:15:48;;;;;;;5.50;3.10;;;23.50;57.40;;;;;;222424;1264;24221;-50
2023/12/16 17:20:53;;;;;;;11.30;3.10;;;23.60;55.70;;;;;;222168;1266;22532;-49
2023/12/16 17:26:02;;;;;;;5.20;2.50;;;23.50;55.40;;;;;;221942;1257;25187;-52
2023/12/16 17:31:09;;;;;;;10.00;4.20;;;23.40;55.50;;;;;;221976;1264;25227;-47
2023/12/16 17:36:16;;;;;;;14.60;4.90;;;23.40;55.20;;;;;;222352;1264;22518;-52
2023/12/16 17:41:38;;;;;;;20.50;4.40;;;23.40;55.10;;;;;;222442;1266;24967;-49
2023/12/16 17:47:12;;;;;;;15.60;4.80;;;23.40;56.10;;;;;;222496;1263;24308;-47
2023/12/16 17:53:08;;;;;;;16.20;4.50;;;23.30;55.60;;;;;;222624;1257;25917;-51
2023/12/16 17:58:13;;;;;;;10.70;4.30;;;23.60;55.40;;;;;;222605;1247;24475;-52
2023/12/16 18:03:18;;;;;;;9.70;3.60;;;23.50;55.60;;;;;;222409;1263;22527;-50
2023/12/16 18:08:23;;;;;;;13.70;3.90;;;23.20;55.50;;;;;;222407;1263;22521;-49
2023/12/16 18:13:27;;;;;;;17.90;4.80;;;23.20;56.20;;;;;;222308;1263;26664;-49
2023/12/16 18:18:34;;;;;;;5.70;3.30;;;23.10;56.10;;;;;;222658;1260;22780;-51
2023/12/16 18:23:39;;;;;;;7.20;3.80;;;23.10;56.60;;;;;;222094;1263;280949;-50
2023/12/16 18:28:45;;;;;;;9.80;4.20;;;23.00;56.10;;;;;;222901;1260;25349;-49
2023/12/16 18:33:52;;;;;;;9.40;3.60;;;22.90;56.30;;;;;;222729;1260;22618;-47
2023/12/16 18:38:56;;;;;;;8.30;3.30;;;22.90;56.00;;;;;;222588;1264;25242;-51
2023/12/16 18:44:03;;;;;;;7.30;3.30;;;23.10;55.20;;;;;;222513;1264;24200;-49
2023/12/16 18:49:08;;;;;;;8.30;3.70;;;23.40;54.60;;;;;;222567;1255;22525;-48
2023/12/16 18:54:15;;;;;;;9.00;4.00;;;23.50;54.00;;;;;;222675;1264;22582;-49
2023/12/16 18:59:22;;;;;;;5.50;3.40;;;23.60;54.00;;;;;;222787;1246;22782;-46
2023/12/16 19:04:27;;;;;;;6.20;3.20;;;23.70;53.50;;;;;;222596;1260;22944;-48
2023/12/16 19:09:34;;;;;;;10.10;4.30;;;23.70;53.80;;;;;;222828;1260;22595;-47
2023/12/16 19:14:40;;;;;;;12.30;3.30;;;23.70;53.80;;;;;;222590;1268;24195;-46
2023/12/16 19:19:45;;;;;;;7.00;3.10;;;23.70;53.60;;;;;;222290;1264;22593;-49
2023/12/16 19:24:52;;;;;;;4.10;2.70;;;23.50;54.00;;;;;;222439;1260;22541;-46
2023/12/16 19:29:56;;;;;;;6.60;3.50;;;23.50;53.70;;;;;;222585;1254;22528;-48
2023/12/16 19:35:01;;;;;;;5.20;3.40;;;23.40;53.90;;;;;;222644;1261;22788;-45
2023/12/16 19:40:07;;;;;;;6.00;3.40;;;23.30;54.10;;;;;;222618;1262;24252;-45
2023/12/16 19:45:13;;;;;;;6.00;3.30;;;23.30;54.30;;;;;;222782;1253;25481;-49
2023/12/16 19:50:18;;;;;;;6.40;4.10;;;23.20;54.00;;;;;;222950;1261;23371;-47
2023/12/16 19:55:22;;;;;;;5.60;3.50;;;23.20;54.20;;;;;;222605;1245;22642;-48
2023/12/16 20:00:27;;;;;;;6.20;3.60;;;23.10;54.30;;;;;;222812;1263;22527;-49
2023/12/16 20:05:32;;;;;;;4.40;3.50;;;23.00;54.50;;;;;;222753;1264;22525;-47
2023/12/16 20:10:39;;;;;;;7.20;4.30;;;23.00;55.00;;;;;;222808;1260;22567;-48
2023/12/16 20:15:44;;;;;;;8.30;4.00;;;23.00;56.20;;;;;;223156;1253;22525;-48
2023/12/16 20:20:49;;;;;;;13.50;4.70;;;23.10;56.90;;;;;;222908;1253;22545;-44
2023/12/16 20:25:56;;;;;;;10.20;4.10;;;22.90;58.00;;;;;;222654;1268;22513;-47
2023/12/16 20:31:00;;;;;;;6.00;3.60;;;22.80;59.90;;;;;;222781;1263;24196;-48
2023/12/16 20:36:06;;;;;;;10.30;4.50;;;22.70;59.20;;;;;;222381;1260;22528;-47
2023/12/16 20:41:11;;;;;;;6.60;4.20;;;22.70;58.90;;;;;;222991;1248;25474;-48
2023/12/16 20:46:16;;;;;;;9.50;4.10;;;22.60;58.80;;;;;;222618;1260;22510;-47
2023/12/16 20:51:21;;;;;;;10.60;4.40;;;22.60;59.10;;;;;;222410;1261;22572;-47
2023/12/16 20:56:26;;;;;;;12.50;4.50;;;22.70;58.90;;;;;;222371;1257;24192;-49
2023/12/16 21:01:32;;;;;;;7.80;3.90;;;22.80;58.30;;;;;;222540;1260;22511;-47
2023/12/16 21:06:37;;;;;;;6.20;4.20;;;23.00;58.20;;;;;;222525;1256;25440;-49
2023/12/16 21:11:42;;;;;;;7.10;4.10;;;23.40;57.40;;;;;;222442;1251;25350;-49
2023/12/16 21:16:47;;;;;;;9.30;4.20;;;23.50;56.20;;;;;;222441;1268;24215;-48
2023/12/16 21:21:52;;;;;;;6.00;3.90;;;23.60;55.80;;;;;;222890;1256;25383;-50
2023/12/16 21:26:56;;;;;;;6.90;3.80;;;23.80;55.40;;;;;;222748;1263;26525;-52
2023/12/16 21:32:02;;;;;;;5.10;4.30;;;23.90;54.60;;;;;;222525;1259;22587;-53
2023/12/16 21:37:08;;;;;;;10.20;4.10;;;23.70;55.00;;;;;;222723;1268;22575;-50
2023/12/16 21:42:12;;;;;;;10.70;4.60;;;23.70;55.30;;;;;;222519;1257;22571;-53
2023/12/16 21:47:17;;;;;;;9.80;4.80;;;23.60;55.10;;;;;;222359;1264;24317;-54
2023/12/16 21:52:27;;;;;;;10.30;4.50;;;23.60;55.00;;;;;;222773;1260;25280;-51
2023/12/16 21:57:32;;;;;;;10.10;4.90;;;23.50;55.00;;;;;;222622;1264;24249;-53
2023/12/16 22:02:37;;;;;;;8.10;4.10;;;23.60;54.80;;;;;;222594;1267;25297;-54
2023/12/16 22:07:42;;;;;;;10.40;4.50;;;23.60;54.60;;;;;;222602;1256;23489;-49
2023/12/16 22:12:47;;;;;;;11.80;4.80;;;23.40;56.20;;;;;;222875;1266;25523;-53
2023/12/16 22:17:52;;;;;;;11.10;5.40;;;23.30;56.00;;;;;;222439;1266;25230;-53
2023/12/16 22:22:56;;;;;;;9.60;5.50;;;23.20;56.10;;;;;;222407;1264;22538;-53
2023/12/16 22:28:01;;;;;;;9.30;5.60;;;23.10;57.40;;;;;;222424;1256;23817;-50
2023/12/16 22:33:05;;;;;;;9.70;5.20;;;23.30;57.50;;;;;;224008;1260;22563;-50
2023/12/16 22:38:11;;;;;;;8.40;5.00;;;23.50;56.70;;;;;;222530;1262;22528;-49
2023/12/16 22:43:15;;;;;;;11.60;4.80;;;23.60;56.40;;;;;;222760;1260;25291;-50
2023/12/16 22:48:21;;;;;;;9.10;5.10;;;23.70;56.10;;;;;;222684;1268;24195;-52
2023/12/16 22:53:26;;;;;;;9.40;5.10;;;23.70;55.70;;;;;;222671;1264;26284;-49
2023/12/16 22:58:31;;;;;;;10.90;5.70;;;23.70;55.60;;;;;;222383;1259;22629;-51
2023/12/16 23:03:43;;;;;;;8.90;4.40;;;23.70;55.90;;;;;;222431;1244;24176;-51
2023/12/16 23:08:48;;;;;;;8.10;4.30;;;23.60;55.50;;;;;;222567;1259;22658;-48
2023/12/16 23:13:54;;;;;;;7.30;4.00;;;23.60;55.60;;;;;;222790;1263;22587;-51
2023/12/16 23:18:59;;;;;;;6.20;4.60;;;23.60;55.60;;;;;;222821;1260;24219;-50
2023/12/16 23:24:05;;;;;;;7.10;4.50;;;23.50;55.40;;;;;;222329;1260;22555;-49
2023/12/16 23:29:10;;;;;;;6.30;4.00;;;23.40;55.40;;;;;;222443;1264;25475;-49
2023/12/16 23:34:14;;;;;;;7.70;4.00;;;23.40;55.40;;;;;;222486;1263;22630;-50
2023/12/16 23:39:19;;;;;;;4.80;3.80;;;23.40;56.10;;;;;;222839;1260;22526;-51
2023/12/16 23:44:23;;;;;;;7.80;4.30;;;23.30;55.60;;;;;;222472;1264;24376;-48
2023/12/16 23:49:28;;;;;;;6.50;4.00;;;23.20;55.90;;;;;;222855;1260;24250;-49
2023/12/16 23:54:33;;;;;;;11.30;4.70;;;23.10;56.10;;;;;;222758;1261;22585;-52
2023/12/16 23:59:37;;;;;;;7.80;4.20;;;23.10;58.60;;;;;;222449;1259;24180;-53
